Time;durP1;ratioP1;P1;durP2;ratioP2;P2;SDS_P1;SDS_P2;PMS_P1;PMS_P2;Temp;Humidity;BMP_temperature;BMP_pressure;BME280_temperature;BME280_humidity;BME280_pressure;Samples;Min_cycle;Max_cycle;Signal;HPM_P1;HPM_P2
2023/05/28 00:00:48;;;;;;;12.90;4.13;;;;;;;;;;4986800;28;20479;-78
2023/05/28 00:03:18;;;;;;;13.70;4.22;;;;;;;;;;4997396;28;20053;-79
2023/05/28 00:05:44;;;;;;;6.07;3.53;;;;;;;;;;4997446;28;20125;-79
2023/05/28 00:08:10;;;;;;;6.22;3.00;;;;;;;;;;4996961;28;20105;-79
2023/05/28 00:10:35;;;;;;;7.40;3.58;;;;;;;;;;4996510;28;20050;-79
2023/05/28 00:13:01;;;;;;;10.45;3.78;;;;;;;;;;4996555;28;20034;-79
2023/05/28 00:15:26;;;;;;;11.23;3.15;;;;;;;;;;4996929;28;20109;-78
2023/05/28 00:17:52;;;;;;;6.82;3.40;;;;;;;;;;4996906;28;20478;-79
2023/05/28 00:20:19;;;;;;;9.38;2.90;;;;;;;;;;4996965;28;20045;-82
2023/05/28 00:22:44;;;;;;;7.75;3.08;;;;;;;;;;4997172;28;20030;-81
2023/05/28 00:25:11;;;;;;;11.30;3.40;;;;;;;;;;4996859;28;20462;-84
2023/05/28 00:27:37;;;;;;;8.48;3.17;;;;;;;;;;4997039;28;20050;-81
2023/05/28 00:30:03;;;;;;;6.22;3.35;;;;;;;;;;4989336;28;20433;-84
2023/05/28 00:32:28;;;;;;;9.23;3.55;;;;;;;;;;4996952;28;20035;-82
2023/05/28 00:34:53;;;;;;;6.82;2.85;;;;;;;;;;4996676;28;20045;-82
2023/05/28 00:37:19;;;;;;;14.15;4.43;;;;;;;;;;4996519;28;20462;-83
2023/05/28 00:39:44;;;;;;;8.77;3.25;;;;;;;;;;4995030;28;20038;-83
2023/05/28 00:42:12;;;;;;;7.57;3.70;;;;;;;;;;4996659;28;20049;-79
2023/05/28 00:44:39;;;;;;;6.75;2.80;;;;;;;;;;4990657;28;20117;-80
2023/05/28 00:47:04;;;;;;;24.10;4.00;;;;;;;;;;4996429;28;20038;-82
2023/05/28 00:49:30;;;;;;;5.20;2.72;;;;;;;;;;4996588;28;20479;-81
2023/05/28 00:51:56;;;;;;;7.30;3.53;;;;;;;;;;4994794;28;20069;-80
2023/05/28 00:54:23;;;;;;;8.13;3.58;;;;;;;;;;4991871;28;20042;-80
2023/05/28 00:56:48;;;;;;;9.05;2.58;;;;;;;;;;4996167;28;20041;-79
2023/05/28 00:59:16;;;;;;;13.00;2.92;;;;;;;;;;4995789;28;20050;-80
2023/05/28 01:01:42;;;;;;;5.47;3.38;;;;;;;;;;4992524;28;20035;-79
2023/05/28 01:04:08;;;;;;;9.68;3.30;;;;;;;;;;4994965;28;20038;-77
2023/05/28 01:06:37;;;;;;;14.60;3.00;;;;;;;;;;4991000;28;20057;-77
2023/05/28 01:09:06;;;;;;;8.98;3.03;;;;;;;;;;4988500;28;20047;-79
2023/05/28 01:11:32;;;;;;;9.98;3.15;;;;;;;;;;4994560;28;20053;-79
2023/05/28 01:13:57;;;;;;;6.97;2.92;;;;;;;;;;4994810;28;20034;-79
2023/05/28 01:16:23;;;;;;;5.35;2.45;;;;;;;;;;4994574;28;20117;-79
2023/05/28 01:18:48;;;;;;;5.80;2.85;;;;;;;;;;4991231;28;20129;-79
2023/05/28 01:21:14;;;;;;;10.60;3.20;;;;;;;;;;4992676;28;20481;-79
2023/05/28 01:23:51;;;;;;;5.80;2.38;;;;;;;;;;4994842;28;20057;-79
2023/05/28 01:26:17;;;;;;;9.13;2.90;;;;;;;;;;4994684;28;20042;-79
2023/05/28 01:28:46;;;;;;;4.07;2.35;;;;;;;;;;4995953;28;20046;-79
2023/05/28 01:31:12;;;;;;;7.53;3.13;;;;;;;;;;4994577;28;20042;-79
2023/05/28 01:33:41;;;;;;;9.10;2.97;;;;;;;;;;4994696;28;20429;-79
2023/05/28 01:36:12;;;;;;;5.15;2.63;;;;;;;;;;4995553;28;20137;-79
2023/05/28 01:38:39;;;;;;;4.53;2.05;;;;;;;;;;4994349;28;20030;-78
2023/05/28 01:41:05;;;;;;;5.53;2.42;;;;;;;;;;4995382;28;20105;-79
2023/05/28 01:43:30;;;;;;;10.32;3.17;;;;;;;;;;4994676;28;20030;-78
2023/05/28 01:45:56;;;;;;;6.97;2.88;;;;;;;;;;4995333;28;20069;-79
2023/05/28 01:48:21;;;;;;;8.05;2.28;;;;;;;;;;4995753;28;20481;-79
2023/05/28 01:50:46;;;;;;;13.80;2.75;;;;;;;;;;4995414;28;20030;-79
2023/05/28 01:53:12;;;;;;;6.55;2.50;;;;;;;;;;4995252;28;20129;-79
2023/05/28 01:55:38;;;;;;;9.15;2.53;;;;;;;;;;4994076;28;20070;-79
2023/05/28 01:58:03;;;;;;;12.73;2.67;;;;;;;;;;4994950;28;20458;-78
2023/05/28 02:00:29;;;;;;;5.20;2.55;;;;;;;;;;4994259;28;20054;-79
2023/05/28 02:02:54;;;;;;;4.53;2.58;;;;;;;;;;4993882;28;20061;-79
2023/05/28 02:05:20;;;;;;;8.90;2.22;;;;;;;;;;4995117;28;20058;-79
2023/05/28 02:07:45;;;;;;;7.43;2.80;;;;;;;;;;4994829;28;20034;-78
2023/05/28 02:10:11;;;;;;;5.68;2.45;;;;;;;;;;4984333;28;20048;-79
2023/05/28 02:12:36;;;;;;;3.33;1.95;;;;;;;;;;4995140;28;20046;-80
2023/05/28 02:15:02;;;;;;;7.78;2.60;;;;;;;;;;4994734;28;20478;-79
2023/05/28 02:17:27;;;;;;;5.93;2.40;;;;;;;;;;4991818;28;20189;-79
2023/05/28 02:19:52;;;;;;;5.05;2.22;;;;;;;;;;4994522;28;20061;-78
2023/05/28 02:22:18;;;;;;;4.78;2.33;;;;;;;;;;4994890;28;20049;-80
2023/05/28 02:24:45;;;;;;;10.25;2.50;;;;;;;;;;4994387;28;20096;-79
2023/05/28 02:27:12;;;;;;;4.95;2.63;;;;;;;;;;4994347;28;20092;-79
2023/05/28 02:29:37;;;;;;;5.20;2.25;;;;;;;;;;4994502;28;20065;-79
2023/05/28 02:32:03;;;;;;;4.43;2.20;;;;;;;;;;4994492;28;20057;-79
2023/05/28 02:34:29;;;;;;;7.45;2.38;;;;;;;;;;4994414;28;20054;-80
2023/05/28 02:36:55;;;;;;;3.55;2.15;;;;;;;;;;4992245;28;20034;-79
2023/05/28 02:39:21;;;;;;;9.32;2.45;;;;;;;;;;4993955;28;20380;-79
2023/05/28 02:41:46;;;;;;;9.43;3.08;;;;;;;;;;4994501;28;20045;-79
2023/05/28 02:44:12;;;;;;;4.55;2.00;;;;;;;;;;4994496;28;20073;-79
2023/05/28 02:46:37;;;;;;;3.85;2.20;;;;;;;;;;4994492;28;20027;-79
2023/05/28 02:49:03;;;;;;;4.43;2.15;;;;;;;;;;4994085;28;20034;-80
2023/05/28 02:51:28;;;;;;;5.88;2.97;;;;;;;;;;4994273;28;20105;-79
2023/05/28 02:53:54;;;;;;;6.90;2.70;;;;;;;;;;4993943;28;20431;-79
2023/05/28 02:56:21;;;;;;;7.82;2.78;;;;;;;;;;4994121;28;20117;-79
2023/05/28 02:58:47;;;;;;;11.95;3.17;;;;;;;;;;4993806;28;20487;-79
2023/05/28 03:01:12;;;;;;;5.43;2.70;;;;;;;;;;4993905;28;20040;-79
2023/05/28 03:03:37;;;;;;;5.05;2.20;;;;;;;;;;4991070;28;20038;-79
2023/05/28 03:06:03;;;;;;;6.70;2.45;;;;;;;;;;4992977;28;20113;-80
2023/05/28 03:08:28;;;;;;;13.23;2.95;;;;;;;;;;4994032;28;20537;-78
2023/05/28 03:10:53;;;;;;;7.22;2.17;;;;;;;;;;4991505;28;20453;-79
2023/05/28 03:13:19;;;;;;;4.63;2.08;;;;;;;;;;4993776;28;20050;-80
2023/05/28 03:15:44;;;;;;;7.53;2.45;;;;;;;;;;4993680;28;20030;-80
2023/05/28 03:18:10;;;;;;;5.70;2.65;;;;;;;;;;4993710;28;20088;-79
2023/05/28 03:20:35;;;;;;;3.85;2.20;;;;;;;;;;4984642;28;20042;-78
2023/05/28 03:23:00;;;;;;;3.25;1.83;;;;;;;;;;4993890;28;20040;-79
2023/05/28 03:25:26;;;;;;;6.53;2.17;;;;;;;;;;4993412;28;20042;-79
2023/05/28 03:27:52;;;;;;;4.10;1.90;;;;;;;;;;4993890;28;20065;-80
2023/05/28 03:30:18;;;;;;;3.97;1.95;;;;;;;;;;4991414;28;20085;-78
2023/05/28 03:32:43;;;;;;;3.92;2.42;;;;;;;;;;4994290;28;20042;-78
2023/05/28 03:35:09;;;;;;;7.05;2.17;;;;;;;;;;4991814;28;20061;-77
2023/05/28 03:37:34;;;;;;;5.50;2.38;;;;;;;;;;4993215;28;20066;-78
2023/05/28 03:40:00;;;;;;;6.40;2.80;;;;;;;;;;4992890;28;20062;-78
2023/05/28 03:42:25;;;;;;;6.25;2.45;;;;;;;;;;4992747;28;20038;-77
2023/05/28 03:44:50;;;;;;;4.70;2.17;;;;;;;;;;4992422;28;20363;-79
2023/05/28 03:47:16;;;;;;;7.05;2.45;;;;;;;;;;4993287;28;20038;-79
2023/05/28 03:49:41;;;;;;;3.55;2.10;;;;;;;;;;4993637;28;20038;-78
2023/05/28 03:52:07;;;;;;;3.78;2.10;;;;;;;;;;4992964;28;20491;-78
2023/05/28 03:54:33;;;;;;;4.25;2.22;;;;;;;;;;4987829;28;20574;-79
2023/05/28 03:56:58;;;;;;;3.90;2.50;;;;;;;;;;4992013;28;20034;-78
2023/05/28 03:59:24;;;;;;;14.43;2.90;;;;;;;;;;4993105;28;20061;-79
2023/05/28 04:01:49;;;;;;;8.57;2.25;;;;;;;;;;4993067;28;20043;-78
2023/05/28 04:04:15;;;;;;;5.85;2.20;;;;;;;;;;4991535;28;20099;-79
2023/05/28 04:06:41;;;;;;;6.13;2.67;;;;;;;;;;4993093;28;20386;-78
2023/05/28 04:09:07;;;;;;;3.60;1.90;;;;;;;;;;4984568;28;20038;-76
2023/05/28 04:11:34;;;;;;;4.53;1.77;;;;;;;;;;4993549;28;20034;-79
2023/05/28 04:14:00;;;;;;;4.68;1.88;;;;;;;;;;4993524;28;20044;-79
2023/05/28 04:16:25;;;;;;;7.68;2.40;;;;;;;;;;4993159;28;20034;-78
2023/05/28 04:18:52;;;;;;;3.72;2.10;;;;;;;;;;4993272;28;20129;-79
2023/05/28 04:21:17;;;;;;;3.80;2.03;;;;;;;;;;4991929;28;20042;-78
2023/05/28 04:23:43;;;;;;;6.60;2.42;;;;;;;;;;4990942;28;20042;-78
2023/05/28 04:26:09;;;;;;;3.90;2.25;;;;;;;;;;4991922;28;20138;-78
2023/05/28 04:28:35;;;;;;;3.38;2.15;;;;;;;;;;4993070;28;20084;-79
2023/05/28 04:31:01;;;;;;;5.38;2.38;;;;;;;;;;4992887;28;20042;-78
2023/05/28 04:33:30;;;;;;;6.95;2.30;;;;;;;;;;4993243;28;20066;-79
2023/05/28 04:35:57;;;;;;;5.28;2.30;;;;;;;;;;4991520;28;20038;-79
2023/05/28 04:38:22;;;;;;;8.68;2.63;;;;;;;;;;4986854;28;20034;-79
2023/05/28 04:40:49;;;;;;;5.50;2.30;;;;;;;;;;4987581;28;20044;-79
2023/05/28 04:43:15;;;;;;;4.80;2.17;;;;;;;;;;4995536;28;20085;-78
2023/05/28 04:45:41;;;;;;;3.45;2.00;;;;;;;;;;4996207;28;20586;-78
2023/05/28 04:48:07;;;;;;;3.70;2.00;;;;;;;;;;4996652;28;20050;-78
2023/05/28 04:50:33;;;;;;;3.90;2.00;;;;;;;;;;4993910;28;20034;-78
2023/05/28 04:52:58;;;;;;;3.45;2.13;;;;;;;;;;4996069;28;20034;-79
2023/05/28 04:55:24;;;;;;;5.07;1.70;;;;;;;;;;4995125;28;20093;-78
2023/05/28 04:57:49;;;;;;;3.05;1.75;;;;;;;;;;4996125;28;20038;-78
2023/05/28 05:00:15;;;;;;;3.45;2.20;;;;;;;;;;4995149;28;20109;-79
2023/05/28 05:02:43;;;;;;;4.95;2.58;;;;;;;;;;4996328;28;20042;-79
2023/05/28 05:05:09;;;;;;;6.55;1.92;;;;;;;;;;4996089;28;20054;-77
2023/05/28 05:07:38;;;;;;;3.05;1.60;;;;;;;;;;4996212;28;20117;-79
2023/05/28 05:10:09;;;;;;;4.03;1.77;;;;;;;;;;4989280;28;20038;-80
2023/05/28 05:12:35;;;;;;;3.33;1.73;;;;;;;;;;4992751;28;20057;-78
2023/05/28 05:15:01;;;;;;;5.20;1.70;;;;;;;;;;4994836;28;20038;-79
2023/05/28 05:17:27;;;;;;;6.30;2.03;;;;;;;;;;4995007;28;20113;-78
2023/05/28 05:19:52;;;;;;;2.88;1.63;;;;;;;;;;4996067;28;20038;-78
2023/05/28 05:22:18;;;;;;;3.28;1.70;;;;;;;;;;4994996;28;20483;-79
2023/05/28 05:24:47;;;;;;;4.05;1.58;;;;;;;;;;4994920;28;20037;-79
2023/05/28 05:27:13;;;;;;;5.55;1.90;;;;;;;;;;4994842;28;20038;-78
2023/05/28 05:29:38;;;;;;;4.53;1.67;;;;;;;;;;4994865;28;20031;-79
2023/05/28 05:32:04;;;;;;;4.68;1.95;;;;;;;;;;4994578;28;20520;-79
2023/05/28 05:34:29;;;;;;;5.40;1.60;;;;;;;;;;4994665;28;20050;-80
2023/05/28 05:36:55;;;;;;;5.55;2.22;;;;;;;;;;4992875;28;20038;-80
2023/05/28 05:39:20;;;;;;;3.60;1.65;;;;;;;;;;4994413;28;20034;-79
2023/05/28 05:41:46;;;;;;;3.45;1.70;;;;;;;;;;4995758;28;20509;-80
2023/05/28 05:44:11;;;;;;;5.05;1.90;;;;;;;;;;4995537;28;20035;-80
2023/05/28 05:46:37;;;;;;;5.45;1.80;;;;;;;;;;4996239;28;20084;-79
2023/05/28 05:49:02;;;;;;;7.47;1.85;;;;;;;;;;4998864;28;20034;-79
2023/05/28 05:51:27;;;;;;;3.50;1.58;;;;;;;;;;4995688;28;20050;-79
2023/05/28 05:53:53;;;;;;;5.88;1.80;;;;;;;;;;4994256;28;20038;-78
2023/05/28 05:56:18;;;;;;;3.67;1.45;;;;;;;;;;4995002;28;20042;-78
2023/05/28 05:58:44;;;;;;;5.95;1.88;;;;;;;;;;4994699;28;20146;-79
2023/05/28 06:01:09;;;;;;;4.95;1.80;;;;;;;;;;4995356;28;20038;-78
2023/05/28 06:03:35;;;;;;;5.80;2.47;;;;;;;;;;4995313;28;20543;-78
2023/05/28 06:06:00;;;;;;;7.10;2.30;;;;;;;;;;4995294;28;20049;-78
2023/05/28 06:08:26;;;;;;;6.03;2.05;;;;;;;;;;4989019;28;20103;-78
2023/05/28 06:10:51;;;;;;;6.07;1.60;;;;;;;;;;4995137;28;20050;-79
2023/05/28 06:13:17;;;;;;;7.10;2.28;;;;;;;;;;4989842;28;20034;-78
2023/05/28 06:15:44;;;;;;;4.97;2.00;;;;;;;;;;4996188;28;20034;-79
2023/05/28 06:18:10;;;;;;;4.80;1.90;;;;;;;;;;4981467;28;20477;-74
2023/05/28 06:20:35;;;;;;;4.28;1.70;;;;;;;;;;4991444;28;20066;-79
2023/05/28 06:23:01;;;;;;;5.68;1.85;;;;;;;;;;4992063;28;20169;-78
2023/05/28 06:25:28;;;;;;;4.70;1.80;;;;;;;;;;4990984;28;20390;-78
2023/05/28 06:27:53;;;;;;;3.80;1.90;;;;;;;;;;4989562;28;20173;-77
2023/05/28 06:30:18;;;;;;;2.25;1.38;;;;;;;;;;4992703;28;20493;-78
2023/05/28 06:32:44;;;;;;;4.20;1.83;;;;;;;;;;4989785;28;20046;-78
2023/05/28 06:35:09;;;;;;;4.32;1.60;;;;;;;;;;4991154;28;20113;-77
2023/05/28 06:37:35;;;;;;;3.65;1.80;;;;;;;;;;4991243;28;20065;-77
2023/05/28 06:40:00;;;;;;;4.15;2.00;;;;;;;;;;4991805;28;20038;-76
2023/05/28 06:42:25;;;;;;;3.83;1.75;;;;;;;;;;4992185;28;20482;-77
2023/05/28 06:44:51;;;;;;;3.42;1.60;;;;;;;;;;4990336;28;20548;-77
2023/05/28 06:47:17;;;;;;;3.05;1.70;;;;;;;;;;4991420;28;20042;-79
2023/05/28 06:49:42;;;;;;;6.38;1.95;;;;;;;;;;4991562;28;20128;-79
2023/05/28 06:52:07;;;;;;;4.60;1.85;;;;;;;;;;4991747;28;20469;-74
2023/05/28 06:54:33;;;;;;;3.25;1.55;;;;;;;;;;4990640;28;20037;-78
2023/05/28 06:56:58;;;;;;;4.65;1.90;;;;;;;;;;4991675;28;20042;-78
2023/05/28 06:59:24;;;;;;;3.15;1.50;;;;;;;;;;4990542;28;20097;-77
2023/05/28 07:01:49;;;;;;;2.65;1.35;;;;;;;;;;4991319;28;20553;-78
2023/05/28 07:04:15;;;;;;;3.17;1.45;;;;;;;;;;4991402;28;20046;-78
2023/05/28 07:06:40;;;;;;;3.55;1.48;;;;;;;;;;4991053;28;20030;-77
2023/05/28 07:09:06;;;;;;;3.42;1.60;;;;;;;;;;4991864;28;20045;-78
2023/05/28 07:11:31;;;;;;;4.78;1.75;;;;;;;;;;4991388;28;20034;-78
2023/05/28 07:13:56;;;;;;;4.28;1.52;;;;;;;;;;4991850;28;20038;-77
2023/05/28 07:16:22;;;;;;;3.10;1.52;;;;;;;;;;4990497;28;20038;-77
2023/05/28 07:18:48;;;;;;;3.30;1.60;;;;;;;;;;4990713;28;20410;-77
2023/05/28 07:21:13;;;;;;;3.92;2.17;;;;;;;;;;4990344;28;20042;-77
2023/05/28 07:23:39;;;;;;;4.47;1.48;;;;;;;;;;4979104;28;20250;-77
2023/05/28 07:26:04;;;;;;;3.80;1.40;;;;;;;;;;4990338;28;20050;-78
2023/05/28 07:28:30;;;;;;;2.72;1.40;;;;;;;;;;4991534;28;20030;-77
2023/05/28 07:30:56;;;;;;;4.43;1.58;;;;;;;;;;4992928;28;20169;-77
2023/05/28 07:33:21;;;;;;;3.40;1.48;;;;;;;;;;4994363;28;20120;-77
2023/05/28 07:35:47;;;;;;;3.22;1.55;;;;;;;;;;4994136;28;20041;-76
2023/05/28 07:38:14;;;;;;;3.55;1.40;;;;;;;;;;4993568;28;20045;-77
2023/05/28 07:40:40;;;;;;;2.90;1.50;;;;;;;;;;4993574;28;20506;-77
2023/05/28 07:43:05;;;;;;;3.53;1.52;;;;;;;;;;4993073;28;20161;-76
2023/05/28 07:45:31;;;;;;;2.70;1.48;;;;;;;;;;4992815;28;20038;-77
2023/05/28 07:47:56;;;;;;;4.50;1.80;;;;;;;;;;4993589;28;20034;-77
2023/05/28 07:50:21;;;;;;;3.53;1.60;;;;;;;;;;4992027;28;20058;-77
2023/05/28 07:52:47;;;;;;;2.55;1.60;;;;;;;;;;4993791;28;20085;-77
2023/05/28 07:55:12;;;;;;;3.08;1.60;;;;;;;;;;4993636;28;20438;-77
2023/05/28 07:57:38;;;;;;;4.43;1.48;;;;;;;;;;4993443;28;20089;-77
2023/05/28 08:00:08;;;;;;;4.20;1.98;;;;;;;;;;4993710;28;20046;-77
2023/05/28 08:02:34;;;;;;;3.67;1.80;;;;;;;;;;4993504;28;20422;-77
2023/05/28 08:05:00;;;;;;;3.55;1.48;;;;;;;;;;4993689;28;20092;-77
2023/05/28 08:07:27;;;;;;;4.18;1.80;;;;;;;;;;4991730;28;20478;-79
2023/05/28 08:09:54;;;;;;;4.35;1.95;;;;;;;;;;4989390;28;20054;-77
2023/05/28 08:12:20;;;;;;;6.43;2.10;;;;;;;;;;4993517;28;20073;-77
2023/05/28 08:14:45;;;;;;;4.88;1.90;;;;;;;;;;4990987;28;20046;-77
2023/05/28 08:17:11;;;;;;;3.70;1.70;;;;;;;;;;4994684;28;20457;-76
2023/05/28 08:19:36;;;;;;;5.38;2.08;;;;;;;;;;4986412;28;20042;-77
2023/05/28 08:22:02;;;;;;;4.80;1.70;;;;;;;;;;4988788;28;20123;-77
2023/05/28 08:24:28;;;;;;;4.75;2.10;;;;;;;;;;4993509;28;20517;-76
2023/05/28 08:26:53;;;;;;;3.08;1.63;;;;;;;;;;4993429;28;20030;-75
2023/05/28 08:29:19;;;;;;;3.65;1.95;;;;;;;;;;4992827;28;20573;-77
2023/05/28 08:31:45;;;;;;;6.07;2.05;;;;;;;;;;4994006;28;20565;-78
2023/05/28 08:34:10;;;;;;;3.72;1.73;;;;;;;;;;4994281;28;20034;-77
2023/05/28 08:36:36;;;;;;;4.80;1.92;;;;;;;;;;4993367;28;20042;-77
2023/05/28 08:39:01;;;;;;;4.18;1.80;;;;;;;;;;4994131;28;20390;-75
2023/05/28 08:41:27;;;;;;;4.13;2.15;;;;;;;;;;4993647;28;20057;-76
2023/05/28 08:43:52;;;;;;;4.32;2.10;;;;;;;;;;4994113;28;20406;-76
2023/05/28 08:46:19;;;;;;;6.30;2.40;;;;;;;;;;4993263;28;20042;-77
2023/05/28 08:48:44;;;;;;;5.20;1.73;;;;;;;;;;4993750;28;20045;-78
2023/05/28 08:51:11;;;;;;;3.97;2.00;;;;;;;;;;4992552;28;20038;-78
2023/05/28 08:53:40;;;;;;;15.52;1.90;;;;;;;;;;4984497;28;20066;-78
2023/05/28 08:56:08;;;;;;;5.30;1.98;;;;;;;;;;4994939;28;20022;-78
2023/05/28 08:58:36;;;;;;;5.55;2.10;;;;;;;;;;4996421;28;20046;-79
2023/05/28 09:01:06;;;;;;;3.45;1.50;;;;;;;;;;4996466;28;20034;-78
2023/05/28 09:03:33;;;;;;;3.63;1.58;;;;;;;;;;4995235;28;20037;-77
2023/05/28 09:05:58;;;;;;;6.80;1.90;;;;;;;;;;4995711;28;20042;-78
2023/05/28 09:08:23;;;;;;;4.82;2.00;;;;;;;;;;4990119;28;20401;-78
2023/05/28 09:10:49;;;;;;;3.90;1.90;;;;;;;;;;4996295;28;20097;-78
2023/05/28 09:13:14;;;;;;;2.90;1.80;;;;;;;;;;4996292;28;20386;-77
2023/05/28 09:15:41;;;;;;;4.60;1.65;;;;;;;;;;4994962;28;20405;-78
2023/05/28 09:18:07;;;;;;;4.15;2.15;;;;;;;;;;4991042;28;20093;-77
2023/05/28 09:20:33;;;;;;;3.83;1.83;;;;;;;;;;4996102;28;20478;-78
2023/05/28 09:23:06;;;;;;;5.70;1.80;;;;;;;;;;4996304;28;20044;-78
2023/05/28 09:25:36;;;;;;;3.90;1.63;;;;;;;;;;4994570;28;20031;-78
2023/05/28 09:28:02;;;;;;;4.10;2.03;;;;;;;;;;4994656;28;20434;-79
2023/05/28 09:30:29;;;;;;;3.58;2.05;;;;;;;;;;4996160;28;20070;-79
2023/05/28 09:33:05;;;;;;;5.28;2.22;;;;;;;;;;4994855;28;20065;-81
2023/05/28 09:35:31;;;;;;;10.43;2.03;;;;;;;;;;4982095;28;20398;-78
2023/05/28 09:38:06;;;;;;;4.07;1.90;;;;;;;;;;4995927;28;20061;-79
2023/05/28 09:40:31;;;;;;;5.25;2.17;;;;;;;;;;4994688;28;20057;-79
2023/05/28 09:42:57;;;;;;;5.38;2.22;;;;;;;;;;4995787;28;20038;-79
2023/05/28 09:45:25;;;;;;;6.30;2.20;;;;;;;;;;4994907;28;20550;-78
2023/05/28 09:47:50;;;;;;;4.60;1.95;;;;;;;;;;4993974;28;20433;-77
2023/05/28 09:50:16;;;;;;;4.47;2.00;;;;;;;;;;4991193;28;20031;-78
2023/05/28 09:52:46;;;;;;;6.80;2.22;;;;;;;;;;4995516;28;20557;-78
2023/05/28 09:55:17;;;;;;;6.78;2.20;;;;;;;;;;4984969;28;20042;-78
2023/05/28 09:58:03;;;;;;;4.07;1.85;;;;;;;;;;4994272;28;20045;-79
2023/05/28 10:00:35;;;;;;;4.88;1.98;;;;;;;;;;4993010;28;20489;-78
2023/05/28 10:03:13;;;;;;;7.07;2.10;;;;;;;;;;4993723;28;20058;-78
2023/05/28 10:05:44;;;;;;;4.78;1.80;;;;;;;;;;4995264;28;20038;-79
2023/05/28 10:08:15;;;;;;;5.15;1.83;;;;;;;;;;4993912;28;20066;-80
2023/05/28 10:10:45;;;;;;;4.15;2.00;;;;;;;;;;4994953;28;20080;-79
2023/05/28 10:13:12;;;;;;;6.18;1.90;;;;;;;;;;4986105;28;20041;-79
2023/05/28 10:15:38;;;;;;;5.68;1.90;;;;;;;;;;4989154;28;20389;-79
2023/05/28 10:18:03;;;;;;;3.67;2.30;;;;;;;;;;5015035;28;20513;-79
2023/05/28 10:20:30;;;;;;;3.50;1.65;;;;;;;;;;4991143;28;20049;-79
2023/05/28 10:22:56;;;;;;;5.25;2.00;;;;;;;;;;4990634;28;20030;-81
2023/05/28 10:25:21;;;;;;;6.28;2.20;;;;;;;;;;4990235;28;20386;-80
2023/05/28 10:27:50;;;;;;;6.22;1.90;;;;;;;;;;4991039;28;20042;-79
2023/05/28 10:30:32;;;;;;;5.47;2.20;;;;;;;;;;4991340;28;20502;-77
2023/05/28 10:32:58;;;;;;;4.63;2.05;;;;;;;;;;4991209;28;20105;-79
2023/05/28 10:35:23;;;;;;;11.77;2.03;;;;;;;;;;4990609;28;20050;-78
2023/05/28 10:37:48;;;;;;;6.30;2.35;;;;;;;;;;4991701;28;20057;-79
2023/05/28 10:40:23;;;;;;;5.25;2.08;;;;;;;;;;4991936;28;20407;-79
2023/05/28 10:42:49;;;;;;;7.97;2.40;;;;;;;;;;4990873;28;20042;-78
2023/05/28 10:45:14;;;;;;;4.38;2.00;;;;;;;;;;4991651;28;20180;-77
2023/05/28 10:47:41;;;;;;;6.65;2.00;;;;;;;;;;4992120;28;20041;-77
2023/05/28 10:50:17;;;;;;;4.28;1.90;;;;;;;;;;4992297;28;20074;-77
2023/05/28 10:52:43;;;;;;;4.25;1.90;;;;;;;;;;4989695;28;20038;-77
2023/05/28 10:55:12;;;;;;;4.53;1.90;;;;;;;;;;4990917;28;20042;-74
2023/05/28 10:57:43;;;;;;;5.93;2.10;;;;;;;;;;4989690;28;20038;-77
2023/05/28 11:00:12;;;;;;;9.38;2.00;;;;;;;;;;4988479;28;20077;-76
2023/05/28 11:02:39;;;;;;;5.22;2.03;;;;;;;;;;4993726;28;20510;-77
2023/05/28 11:05:05;;;;;;;5.80;1.98;;;;;;;;;;4994667;28;20062;-76
2023/05/28 11:07:41;;;;;;;5.80;2.13;;;;;;;;;;4994036;28;20042;-77
2023/05/28 11:10:12;;;;;;;6.22;2.00;;;;;;;;;;4994102;28;20042;-76
2023/05/28 11:12:39;;;;;;;5.63;2.47;;;;;;;;;;4993900;28;20096;-77
2023/05/28 11:15:06;;;;;;;4.90;2.10;;;;;;;;;;4993780;28;20132;-77
2023/05/28 11:17:43;;;;;;;9.15;2.60;;;;;;;;;;4993028;28;20125;-77
2023/05/28 11:20:24;;;;;;;5.45;2.25;;;;;;;;;;4986676;28;20497;-76
2023/05/28 11:22:50;;;;;;;7.72;2.53;;;;;;;;;;4989471;28;20490;-76
2023/05/28 11:25:15;;;;;;;5.20;2.10;;;;;;;;;;4975889;28;20045;-76
2023/05/28 11:27:41;;;;;;;8.23;2.13;;;;;;;;;;4993900;28;20459;-78
2023/05/28 11:30:14;;;;;;;6.85;2.40;;;;;;;;;;4993458;28;20102;-77
2023/05/28 11:32:41;;;;;;;5.60;2.15;;;;;;;;;;4992752;28;20115;-77
2023/05/28 11:35:11;;;;;;;5.18;2.05;;;;;;;;;;4993620;28;20030;-77
2023/05/28 11:37:36;;;;;;;5.22;2.08;;;;;;;;;;4991399;28;20042;-76
2023/05/28 11:40:10;;;;;;;7.45;2.22;;;;;;;;;;4992505;28;20049;-76
2023/05/28 11:42:40;;;;;;;7.15;2.42;;;;;;;;;;4991091;28;20485;-76
2023/05/28 11:45:07;;;;;;;5.13;1.85;;;;;;;;;;4991333;28;20034;-76
2023/05/28 11:47:33;;;;;;;6.25;2.20;;;;;;;;;;4993265;28;20034;-76
2023/05/28 11:49:58;;;;;;;6.22;2.17;;;;;;;;;;4986327;28;20030;-76
2023/05/28 11:52:25;;;;;;;8.60;2.50;;;;;;;;;;4996293;28;20387;-76
2023/05/28 11:54:55;;;;;;;5.75;2.00;;;;;;;;;;4994917;28;20049;-76
2023/05/28 11:57:22;;;;;;;5.15;1.85;;;;;;;;;;5021633;28;20045;-77
2023/05/28 12:00:07;;;;;;;6.30;2.20;;;;;;;;;;4990487;28;20502;-77
2023/05/28 12:02:32;;;;;;;4.75;1.90;;;;;;;;;;4984285;28;20034;-77
2023/05/28 12:05:01;;;;;;;5.05;2.20;;;;;;;;;;4997272;28;20045;-76
2023/05/28 12:07:34;;;;;;;6.15;2.38;;;;;;;;;;4990877;28;20459;-77
2023/05/28 12:10:08;;;;;;;5.07;2.00;;;;;;;;;;4995998;28;20415;-77
2023/05/28 12:12:35;;;;;;;7.43;2.70;;;;;;;;;;4992230;28;20058;-77
2023/05/28 12:15:04;;;;;;;7.22;2.70;;;;;;;;;;4990278;28;20042;-77
2023/05/28 12:17:40;;;;;;;8.20;2.58;;;;;;;;;;4994955;28;20034;-77
2023/05/28 12:20:06;;;;;;;7.53;2.45;;;;;;;;;;4995903;28;20057;-76
2023/05/28 12:22:32;;;;;;;5.72;2.17;;;;;;;;;;4989501;28;20470;-77
2023/05/28 12:24:58;;;;;;;4.55;2.30;;;;;;;;;;4997073;28;20046;-77
2023/05/28 12:27:23;;;;;;;6.13;2.47;;;;;;;;;;4994953;28;20065;-77
2023/05/28 12:29:48;;;;;;;5.13;2.30;;;;;;;;;;4997106;28;20463;-77
2023/05/28 12:32:14;;;;;;;4.53;2.20;;;;;;;;;;4996631;28;20034;-78
2023/05/28 12:34:39;;;;;;;7.10;2.60;;;;;;;;;;4987880;28;20046;-77
2023/05/28 12:37:05;;;;;;;5.07;2.63;;;;;;;;;;4987283;28;20038;-77
2023/05/28 12:39:31;;;;;;;6.15;2.15;;;;;;;;;;4992737;28;20121;-77
2023/05/28 12:41:56;;;;;;;4.68;2.35;;;;;;;;;;4988821;28;20049;-77
2023/05/28 12:44:21;;;;;;;7.13;3.03;;;;;;;;;;4992577;28;20042;-76
2023/05/28 12:46:47;;;;;;;7.93;2.53;;;;;;;;;;4993410;28;20113;-78
2023/05/28 12:49:12;;;;;;;8.32;2.67;;;;;;;;;;4993197;28;20093;-77
2023/05/28 12:51:38;;;;;;;7.07;2.35;;;;;;;;;;4992378;28;20038;-78
2023/05/28 12:54:06;;;;;;;7.30;2.17;;;;;;;;;;4994253;28;20541;-78
2023/05/28 12:56:31;;;;;;;8.88;2.25;;;;;;;;;;4988982;28;20073;-78
2023/05/28 12:58:58;;;;;;;5.80;2.25;;;;;;;;;;4985995;28;20073;-78
2023/05/28 13:01:23;;;;;;;7.65;2.25;;;;;;;;;;4979304;28;20470;-78
2023/05/28 13:03:50;;;;;;;9.30;2.70;;;;;;;;;;4990086;28;20053;-76
2023/05/28 13:06:16;;;;;;;10.32;2.55;;;;;;;;;;4984997;28;20065;-78
2023/05/28 13:08:41;;;;;;;10.93;2.65;;;;;;;;;;4993404;28;20062;-78
2023/05/28 13:11:06;;;;;;;9.82;2.47;;;;;;;;;;4993260;28;20045;-77
2023/05/28 13:13:32;;;;;;;10.77;2.50;;;;;;;;;;4992824;28;20497;-76
2023/05/28 13:15:57;;;;;;;4.47;1.95;;;;;;;;;;4991582;28;20057;-78
2023/05/28 13:18:23;;;;;;;9.40;2.67;;;;;;;;;;4988069;28;20482;-78
2023/05/28 13:20:48;;;;;;;7.60;2.35;;;;;;;;;;4993003;28;20108;-77
2023/05/28 13:23:13;;;;;;;7.75;2.60;;;;;;;;;;4992891;28;20161;-77
2023/05/28 13:25:39;;;;;;;7.18;2.28;;;;;;;;;;4993396;28;20038;-78
2023/05/28 13:28:04;;;;;;;4.82;2.20;;;;;;;;;;4989955;28;20031;-78
2023/05/28 13:30:30;;;;;;;6.68;2.30;;;;;;;;;;4992687;28;20034;-78
2023/05/28 13:32:55;;;;;;;7.13;2.35;;;;;;;;;;4992780;28;20493;-78
2023/05/28 13:35:21;;;;;;;8.30;2.45;;;;;;;;;;4991850;28;20516;-78
2023/05/28 13:37:46;;;;;;;8.98;2.45;;;;;;;;;;4992143;28;20042;-77
2023/05/28 13:40:13;;;;;;;5.47;2.03;;;;;;;;;;4992846;28;20038;-77
2023/05/28 13:42:42;;;;;;;5.80;2.42;;;;;;;;;;4994336;28;20085;-78
2023/05/28 13:45:09;;;;;;;7.07;2.50;;;;;;;;;;4993559;28;20030;-78
2023/05/28 13:47:35;;;;;;;5.85;2.58;;;;;;;;;;4995921;28;20038;-77
2023/05/28 13:50:01;;;;;;;10.50;2.50;;;;;;;;;;4995740;28;20026;-77
2023/05/28 13:52:26;;;;;;;6.43;2.20;;;;;;;;;;4994981;28;20034;-77
2023/05/28 13:54:52;;;;;;;6.65;2.47;;;;;;;;;;4994113;28;20088;-78
2023/05/28 13:57:19;;;;;;;6.93;2.45;;;;;;;;;;4992902;28;20455;-82
2023/05/28 13:59:45;;;;;;;7.80;2.53;;;;;;;;;;4995056;28;20138;-81
2023/05/28 14:02:11;;;;;;;6.65;2.10;;;;;;;;;;4995371;28;20099;-81
2023/05/28 14:04:36;;;;;;;5.85;2.22;;;;;;;;;;4995367;28;20027;-82
2023/05/28 14:07:02;;;;;;;8.45;2.42;;;;;;;;;;4994805;28;20019;-79
2023/05/28 14:09:27;;;;;;;5.47;2.00;;;;;;;;;;4995095;28;20042;-78
2023/05/28 14:11:53;;;;;;;6.63;2.42;;;;;;;;;;4995263;28;20030;-77
2023/05/28 14:14:18;;;;;;;5.05;2.20;;;;;;;;;;4993118;28;20065;-78
2023/05/28 14:16:43;;;;;;;5.45;2.35;;;;;;;;;;4993926;28;20053;-78
2023/05/28 14:19:09;;;;;;;9.10;2.50;;;;;;;;;;4994839;28;20054;-78
2023/05/28 14:21:35;;;;;;;8.60;2.38;;;;;;;;;;4994786;28;20462;-78
2023/05/28 14:24:00;;;;;;;6.63;2.28;;;;;;;;;;4994767;28;20041;-78
2023/05/28 14:26:26;;;;;;;6.20;2.72;;;;;;;;;;4994548;28;20038;-78
2023/05/28 14:28:51;;;;;;;7.43;2.97;;;;;;;;;;4992659;28;20124;-77
2023/05/28 14:31:17;;;;;;;7.13;2.60;;;;;;;;;;4994151;28;20101;-77
2023/05/28 14:33:42;;;;;;;7.20;2.53;;;;;;;;;;4991130;28;20391;-77
2023/05/28 14:36:07;;;;;;;5.90;2.50;;;;;;;;;;4992981;28;20030;-77
2023/05/28 14:38:33;;;;;;;6.28;2.50;;;;;;;;;;4990141;28;20384;-78